Time;durP1;ratioP1;P1;durP2;ratioP2;P2;SDS_P1;SDS_P2;PMS_P1;PMS_P2;Temp;Humidity;BMP_temperature;BMP_pressure;BME280_temperature;BME280_humidity;BME280_pressure;Samples;Min_cycle;Max_cycle;Signal;HPM_P1;HPM_P2
2022/04/11 00:01:25;;;;;;;10.90;7.13;;;0.40;99.90;;;;;;5009063;28;20034;-82
2022/04/11 00:03:51;;;;;;;11.43;6.77;;;0.40;99.90;;;;;;5010364;28;20113;-82
2022/04/11 00:06:17;;;;;;;10.37;6.17;;;0.40;99.90;;;;;;5009165;28;20070;-82
2022/04/11 00:08:42;;;;;;;8.87;6.00;;;0.30;99.90;;;;;;5010492;28;20030;-82
2022/04/11 00:11:08;;;;;;;8.80;6.47;;;0.30;99.90;;;;;;5010098;28;20093;-82
2022/04/11 00:13:34;;;;;;;10.13;6.03;;;0.30;99.90;;;;;;5025875;28;20029;-82
2022/04/11 00:15:59;;;;;;;8.97;6.00;;;0.30;99.90;;;;;;5034204;28;20033;-82
2022/04/11 00:18:25;;;;;;;7.33;5.50;;;0.30;99.90;;;;;;5049736;28;20072;-82
2022/04/11 00:20:51;;;;;;;8.27;5.77;;;0.30;99.90;;;;;;5032905;28;20033;-82
2022/04/11 00:23:16;;;;;;;9.00;5.57;;;0.30;99.90;;;;;;5026619;28;20458;-82
2022/04/11 00:25:42;;;;;;;9.13;5.67;;;0.20;99.90;;;;;;5013956;28;20097;-82
2022/04/11 00:28:08;;;;;;;9.70;5.90;;;0.30;99.90;;;;;;5031208;28;20029;-80
2022/04/11 00:30:34;;;;;;;9.63;5.50;;;0.20;99.90;;;;;;5020964;28;20038;-81
2022/04/11 00:32:59;;;;;;;9.67;6.27;;;0.30;99.90;;;;;;5013853;28;20172;-81
2022/04/11 00:35:25;;;;;;;10.40;6.17;;;0.20;99.90;;;;;;5012884;28;20030;-81
2022/04/11 00:37:51;;;;;;;11.13;5.83;;;0.20;99.90;;;;;;5014173;28;20037;-80
2022/04/11 00:40:17;;;;;;;8.10;5.63;;;0.20;99.90;;;;;;5029181;28;20030;-82
2022/04/11 00:42:42;;;;;;;11.90;5.70;;;0.20;99.90;;;;;;5013732;28;20041;-82
2022/04/11 00:45:08;;;;;;;11.17;6.50;;;0.20;99.90;;;;;;5012699;28;20030;-82
2022/04/11 00:47:34;;;;;;;7.50;5.33;;;0.20;99.90;;;;;;5009034;28;20027;-82
2022/04/11 00:50:09;;;;;;;8.30;5.97;;;0.20;99.90;;;;;;5007113;28;20058;-82
2022/04/11 00:52:48;;;;;;;7.82;5.63;;;0.20;99.90;;;;;;4994510;28;20061;-82
2022/04/11 00:55:16;;;;;;;10.30;6.10;;;0.20;99.90;;;;;;4993185;28;20034;-82
2022/04/11 00:57:42;;;;;;;7.27;5.50;;;0.20;99.90;;;;;;4994368;28;20034;-82
2022/04/11 01:00:09;;;;;;;11.60;5.77;;;0.20;99.90;;;;;;4999837;28;20026;-82
2022/04/11 01:02:35;;;;;;;10.13;6.53;;;0.20;99.90;;;;;;5013239;28;20084;-82
2022/04/11 01:05:01;;;;;;;8.97;6.37;;;0.10;99.90;;;;;;5013764;28;20017;-82
2022/04/11 01:07:27;;;;;;;9.77;6.53;;;0.10;99.90;;;;;;5028759;28;20040;-81
2022/04/11 01:09:53;;;;;;;10.20;5.77;;;0.10;99.90;;;;;;5012234;28;20034;-81
2022/04/11 01:12:20;;;;;;;9.50;5.83;;;0.10;99.90;;;;;;5008391;28;20113;-82
2022/04/11 01:14:46;;;;;;;10.07;5.90;;;0.10;99.90;;;;;;4993617;28;20125;-82
2022/04/11 01:17:11;;;;;;;9.57;5.70;;;0.10;99.90;;;;;;5006458;28;20380;-81
2022/04/11 01:19:37;;;;;;;8.97;6.30;;;0.10;99.90;;;;;;5013323;28;20108;-81
2022/04/11 01:22:03;;;;;;;8.97;5.77;;;0.10;99.90;;;;;;5013310;28;20045;-81
2022/04/11 01:24:29;;;;;;;9.77;6.10;;;0.10;99.90;;;;;;5011322;28;20030;-81
2022/04/11 01:26:55;;;;;;;8.90;5.73;;;0.10;99.90;;;;;;5028378;28;20032;-83
2022/04/11 01:29:21;;;;;;;8.30;5.53;;;0.10;99.90;;;;;;5013313;28;20026;-82
2022/04/11 01:31:47;;;;;;;9.37;6.00;;;0.00;99.90;;;;;;5013371;28;20133;-82
2022/04/11 01:34:13;;;;;;;10.57;5.70;;;0.00;99.90;;;;;;5012502;28;20466;-82
2022/04/11 01:36:38;;;;;;;12.53;6.50;;;0.00;99.90;;;;;;5012206;28;20068;-82
2022/04/11 01:39:04;;;;;;;10.90;6.40;;;0.00;99.90;;;;;;5011757;28;20383;-82
2022/04/11 01:41:30;;;;;;;9.10;6.00;;;0.00;99.90;;;;;;5013254;28;20095;-82
2022/04/11 01:43:55;;;;;;;10.00;5.70;;;0.00;99.90;;;;;;5013062;28;20105;-82
2022/04/11 01:46:21;;;;;;;8.93;5.70;;;0.00;99.90;;;;;;5027892;28;20098;-82
2022/04/11 01:48:47;;;;;;;7.40;5.23;;;0.00;99.90;;;;;;5003658;28;20479;-81
2022/04/11 01:51:13;;;;;;;10.50;6.50;;;0.00;99.90;;;;;;5011071;28;20428;-82
2022/04/11 01:53:39;;;;;;;8.63;6.30;;;0.00;99.90;;;;;;5012753;28;20025;-83
2022/04/11 01:56:05;;;;;;;9.73;6.23;;;-0.10;99.90;;;;;;5011257;28;20117;-82
2022/04/11 01:58:31;;;;;;;9.90;5.80;;;-0.10;99.90;;;;;;5012496;28;20041;-82
2022/04/11 02:00:58;;;;;;;12.00;5.97;;;-0.10;99.90;;;;;;5012478;28;20029;-83
2022/04/11 02:03:25;;;;;;;10.30;5.73;;;-0.10;99.90;;;;;;5012881;28;20026;-83
2022/04/11 02:05:51;;;;;;;9.50;6.03;;;-0.10;99.90;;;;;;5012170;28;20109;-83
2022/04/11 02:08:16;;;;;;;9.03;6.13;;;-0.10;99.90;;;;;;5011353;28;20112;-83
2022/04/11 02:10:42;;;;;;;8.27;5.30;;;-0.10;99.90;;;;;;5010675;28;20034;-83
2022/04/11 02:13:08;;;;;;;6.97;5.50;;;-0.10;99.90;;;;;;5012368;28;20084;-83
2022/04/11 02:15:34;;;;;;;8.40;5.07;;;0.00;99.90;;;;;;5012234;28;20014;-83
2022/04/11 02:18:00;;;;;;;10.37;6.27;;;0.00;99.90;;;;;;5012604;28;20547;-83
2022/04/11 02:20:26;;;;;;;10.03;6.20;;;0.00;99.90;;;;;;5012472;28;20037;-83
2022/04/11 02:22:56;;;;;;;10.57;6.03;;;0.00;99.90;;;;;;5013476;28;20028;-83
2022/04/11 02:25:27;;;;;;;9.27;5.93;;;0.00;99.90;;;;;;5031798;28;20029;-83
2022/04/11 02:27:59;;;;;;;10.20;6.83;;;0.00;99.90;;;;;;5026254;28;20104;-83
2022/04/11 02:30:26;;;;;;;8.50;5.90;;;0.00;99.90;;;;;;5028231;28;20037;-83
2022/04/11 02:32:53;;;;;;;8.63;6.20;;;0.00;99.90;;;;;;5013507;28;20046;-83
2022/04/11 02:35:19;;;;;;;9.20;6.37;;;0.00;99.90;;;;;;5012692;28;20072;-83
2022/04/11 02:37:46;;;;;;;10.97;6.43;;;0.00;99.90;;;;;;5012222;28;20030;-83
2022/04/11 02:40:12;;;;;;;9.80;6.07;;;0.00;99.90;;;;;;5011190;28;20028;-83
2022/04/11 02:42:42;;;;;;;9.40;6.30;;;-0.10;99.90;;;;;;5011679;28;20422;-82
2022/04/11 02:45:09;;;;;;;10.47;6.50;;;-0.10;99.90;;;;;;5011446;28;20041;-83
2022/04/11 02:47:34;;;;;;;9.67;5.93;;;-0.10;99.90;;;;;;5008491;28;20022;-82
2022/04/11 02:50:00;;;;;;;9.30;5.83;;;-0.10;99.90;;;;;;5002651;28;20510;-83
2022/04/11 02:52:25;;;;;;;11.07;5.83;;;-0.10;99.90;;;;;;5011471;28;20022;-83
2022/04/11 02:54:51;;;;;;;13.10;5.37;;;-0.10;99.90;;;;;;5011822;28;20037;-83
2022/04/11 02:57:16;;;;;;;9.40;5.63;;;-0.10;99.90;;;;;;5011509;28;20033;-83
2022/04/11 02:59:42;;;;;;;10.40;6.20;;;-0.10;99.90;;;;;;5009993;28;20053;-83
2022/04/11 03:02:08;;;;;;;12.20;5.97;;;-0.20;99.90;;;;;;5011749;28;20057;-83
2022/04/11 03:04:33;;;;;;;10.00;5.73;;;-0.20;99.90;;;;;;5009977;28;20064;-83
2022/04/11 03:06:59;;;;;;;8.73;5.87;;;-0.20;99.90;;;;;;5011861;28;20779;-83
2022/04/11 03:09:24;;;;;;;17.87;7.40;;;-0.20;99.90;;;;;;5011170;28;20037;-83
2022/04/11 03:11:50;;;;;;;12.53;5.70;;;-0.30;99.90;;;;;;5010315;28;20108;-83
2022/04/11 03:14:16;;;;;;;11.63;6.97;;;-0.30;99.90;;;;;;5011616;28;20120;-83
2022/04/11 03:16:41;;;;;;;13.47;6.40;;;-0.30;99.90;;;;;;5010032;28;20026;-83
2022/04/11 03:19:08;;;;;;;12.00;6.83;;;-0.30;99.90;;;;;;5011505;28;20030;-83
2022/04/11 03:21:34;;;;;;;13.77;6.47;;;-0.30;99.90;;;;;;5025814;28;20032;-83
2022/04/11 03:24:00;;;;;;;9.50;6.33;;;-0.30;99.90;;;;;;5010950;28;20573;-83
2022/04/11 03:26:25;;;;;;;18.60;7.03;;;-0.30;99.90;;;;;;5011392;28;20033;-83
2022/04/11 03:28:51;;;;;;;10.33;5.80;;;-0.30;99.90;;;;;;5011230;28;20037;-83
2022/04/11 03:31:17;;;;;;;9.73;6.27;;;-0.30;99.90;;;;;;5011331;28;20052;-83
2022/04/11 03:33:43;;;;;;;9.27;5.77;;;-0.30;99.90;;;;;;5026186;28;20048;-83
2022/04/11 03:36:09;;;;;;;9.83;6.13;;;-0.30;99.90;;;;;;5011255;28;20018;-83
2022/04/11 03:38:35;;;;;;;11.50;6.03;;;-0.30;99.90;;;;;;5013556;28;20037;-87
2022/04/11 03:41:01;;;;;;;10.57;6.87;;;-0.30;99.90;;;;;;5013535;28;20030;-87
2022/04/11 03:43:27;;;;;;;11.77;6.77;;;-0.30;99.90;;;;;;5028712;28;20128;-87
2022/04/11 03:45:53;;;;;;;9.33;6.00;;;-0.30;99.90;;;;;;5012239;28;20124;-88
2022/04/11 03:48:18;;;;;;;9.07;6.10;;;-0.30;99.90;;;;;;5011841;28;20121;-88
2022/04/11 03:50:44;;;;;;;10.47;6.20;;;-0.30;99.90;;;;;;5013422;28;20018;-88
2022/04/11 03:53:12;;;;;;;11.37;6.90;;;-0.30;99.90;;;;;;5013283;28;20414;-87
2022/04/11 03:55:38;;;;;;;11.43;5.90;;;-0.30;99.90;;;;;;5013345;28;20072;-87
2022/04/11 03:58:03;;;;;;;11.53;6.60;;;-0.30;99.90;;;;;;5012092;28;20053;-88
2022/04/11 04:00:29;;;;;;;10.70;6.60;;;-0.30;99.90;;;;;;5013363;28;20026;-88
2022/04/11 04:03:07;;;;;;;10.80;6.53;;;-0.30;99.90;;;;;;5012109;28;20355;-88
2022/04/11 04:05:39;;;;;;;11.57;7.57;;;-0.30;99.90;;;;;;5013304;28;20037;-87
2022/04/11 04:08:04;;;;;;;12.27;7.30;;;-0.30;99.90;;;;;;5013103;28;20164;-87
2022/04/11 04:10:30;;;;;;;12.83;6.53;;;-0.30;99.90;;;;;;5014102;28;20068;-88
2022/04/11 04:12:59;;;;;;;11.53;5.90;;;-0.20;99.90;;;;;;5011656;28;20026;-88
2022/04/11 04:15:25;;;;;;;14.10;6.97;;;-0.20;99.90;;;;;;5001563;28;20022;-87
2022/04/11 04:17:55;;;;;;;15.17;7.27;;;-0.20;99.90;;;;;;5012506;28;20033;-88
2022/04/11 04:20:20;;;;;;;335.50;139.70;;;-0.20;99.90;;;;;;4997153;28;20034;-88
2022/04/11 04:22:46;;;;;;;35.17;16.67;;;-0.20;99.90;;;;;;5005536;28;20501;-88
2022/04/11 04:25:12;;;;;;;209.50;104.70;;;-0.20;99.90;;;;;;5027235;28;20037;-88
2022/04/11 04:27:37;;;;;;;29.50;18.23;;;-0.10;99.90;;;;;;5018834;28;20120;-88
2022/04/11 04:30:04;;;;;;;17.93;10.30;;;-0.10;99.90;;;;;;5012231;28;20018;-87
2022/04/11 04:32:30;;;;;;;17.47;8.83;;;-0.10;99.90;;;;;;5012956;28;20475;-87
2022/04/11 04:34:56;;;;;;;13.97;7.23;;;-0.10;99.90;;;;;;5013276;28;20030;-88
2022/04/11 04:37:21;;;;;;;21.50;7.50;;;0.00;99.90;;;;;;5013285;28;20033;-88
2022/04/11 04:39:49;;;;;;;22.50;8.73;;;0.00;99.90;;;;;;5013631;28;20026;-87
2022/04/11 04:42:21;;;;;;;21.63;9.43;;;0.00;99.90;;;;;;5023616;28;20477;-88
2022/04/11 04:44:47;;;;;;;26.63;9.13;;;0.00;99.90;;;;;;4999741;28;20033;-88
2022/04/11 04:47:15;;;;;;;40.13;13.77;;;0.10;99.90;;;;;;5012601;28;20029;-88
2022/04/11 04:49:41;;;;;;;29.63;9.50;;;0.10;99.90;;;;;;5012844;28;20467;-88
2022/04/11 04:52:08;;;;;;;26.40;9.37;;;0.10;99.90;;;;;;5007361;28;20048;-87
2022/04/11 04:54:34;;;;;;;26.07;8.47;;;0.10;99.90;;;;;;4994190;28;20118;-88
2022/04/11 04:56:59;;;;;;;24.03;8.17;;;0.20;99.90;;;;;;5006904;28;20092;-88
2022/04/11 04:59:25;;;;;;;14.87;7.77;;;0.20;99.90;;;;;;5021134;28;20034;-87
2022/04/11 05:01:50;;;;;;;25.87;8.53;;;0.30;99.90;;;;;;5025981;28;20040;-88
2022/04/11 05:04:16;;;;;;;20.40;9.90;;;0.30;99.90;;;;;;5026750;28;20080;-88
2022/04/11 05:06:41;;;;;;;16.20;8.90;;;0.40;99.90;;;;;;5044562;28;20037;-89
2022/04/11 05:09:07;;;;;;;11.90;8.40;;;0.40;99.90;;;;;;5035961;28;20084;-89
2022/04/11 05:11:32;;;;;;;14.23;7.00;;;0.50;99.90;;;;;;5035732;28;20146;-89
2022/04/11 05:13:58;;;;;;;12.53;6.90;;;0.50;99.90;;;;;;5022462;28;20033;-89
2022/04/11 05:16:24;;;;;;;12.73;8.77;;;0.60;99.90;;;;;;5006513;28;20138;-88
2022/04/11 05:18:51;;;;;;;18.70;10.33;;;0.70;99.90;;;;;;5014535;28;20434;-86
2022/04/11 05:21:19;;;;;;;16.53;11.50;;;0.80;99.90;;;;;;5021572;28;20037;-87
2022/04/11 05:23:45;;;;;;;14.87;10.70;;;0.90;99.90;;;;;;5009486;28;20072;-87
2022/04/11 05:26:10;;;;;;;17.00;11.03;;;1.10;99.90;;;;;;5028017;28;20022;-87
2022/04/11 05:28:36;;;;;;;15.33;10.50;;;1.10;99.90;;;;;;5026353;28;20026;-87
2022/04/11 05:31:01;;;;;;;22.60;10.13;;;1.10;99.90;;;;;;5029039;28;20055;-86
2022/04/11 05:33:27;;;;;;;21.77;10.27;;;1.20;99.90;;;;;;5013417;28;20073;-85
2022/04/11 05:35:56;;;;;;;19.03;9.33;;;1.30;99.90;;;;;;5015218;28;20026;-85
2022/04/11 05:38:22;;;;;;;17.77;8.90;;;1.40;99.90;;;;;;5015440;28;20025;-86
2022/04/11 05:40:50;;;;;;;17.90;8.33;;;1.40;99.90;;;;;;5012817;28;20388;-83
2022/04/11 05:43:16;;;;;;;15.17;8.13;;;1.50;99.90;;;;;;5031626;28;20036;-85
2022/04/11 05:45:42;;;;;;;15.07;8.53;;;1.80;99.90;;;;;;5017381;28;20100;-85
2022/04/11 05:48:09;;;;;;;18.50;10.37;;;1.80;99.90;;;;;;5011799;28;20061;-85
2022/04/11 05:50:38;;;;;;;14.17;7.13;;;1.90;99.90;;;;;;5014149;28;20025;-85
2022/04/11 05:53:04;;;;;;;15.20;7.60;;;2.10;99.90;;;;;;5029189;28;20112;-85
2022/04/11 05:55:30;;;;;;;14.43;8.10;;;2.20;99.90;;;;;;5014508;28;20105;-85
2022/04/11 05:57:56;;;;;;;37.20;19.60;;;2.10;99.90;;;;;;5014100;28;20083;-85
2022/04/11 06:00:22;;;;;;;21.43;9.77;;;2.20;99.90;;;;;;5013482;28;20808;-86
2022/04/11 06:02:50;;;;;;;15.50;6.93;;;2.20;99.90;;;;;;5012364;28;20026;-85
2022/04/11 06:05:18;;;;;;;16.93;6.40;;;2.20;99.90;;;;;;5014287;28;20038;-86
2022/04/11 06:07:44;;;;;;;13.17;6.17;;;2.30;99.90;;;;;;5013682;28;20029;-85
2022/04/11 06:10:10;;;;;;;14.33;5.50;;;2.40;99.90;;;;;;5013989;28;20033;-85
2022/04/11 06:12:37;;;;;;;12.53;5.67;;;2.50;99.90;;;;;;5013766;28;20487;-85
2022/04/11 06:15:05;;;;;;;15.53;5.27;;;2.60;99.90;;;;;;5012012;28;20029;-85
2022/04/11 06:17:32;;;;;;;9.27;4.77;;;2.60;99.90;;;;;;5012060;28;20030;-85
2022/04/11 06:19:59;;;;;;;12.80;4.80;;;2.80;99.90;;;;;;5025260;28;20030;-85
2022/04/11 06:22:26;;;;;;;10.17;3.90;;;2.90;99.90;;;;;;5009082;28;20034;-85
2022/04/11 06:25:05;;;;;;;8.30;3.87;;;3.00;99.90;;;;;;5018335;28;20029;-85
2022/04/11 06:27:32;;;;;;;8.03;4.17;;;3.10;99.90;;;;;;5012269;28;20060;-85
2022/04/11 06:29:58;;;;;;;13.57;3.70;;;3.20;99.90;;;;;;5012982;28;20030;-85
2022/04/11 06:32:28;;;;;;;10.20;3.53;;;3.30;99.90;;;;;;5011374;28;20394;-85
2022/04/11 06:34:58;;;;;;;9.00;3.10;;;3.40;99.90;;;;;;5013492;28;20041;-85
2022/04/11 06:37:24;;;;;;;13.07;3.40;;;3.50;99.90;;;;;;5013515;28;20040;-85
2022/04/11 06:39:53;;;;;;;10.10;4.87;;;3.60;99.90;;;;;;5012607;28;20025;-85
2022/04/11 06:42:19;;;;;;;12.53;3.30;;;3.70;99.90;;;;;;5013602;28;20033;-85
2022/04/11 06:44:44;;;;;;;13.70;3.60;;;3.80;99.90;;;;;;5008517;28;20037;-75
2022/04/11 06:47:10;;;;;;;7.47;3.20;;;3.90;99.90;;;;;;5010102;28;20021;-85
2022/04/11 06:49:39;;;;;;;17.93;3.47;;;4.00;99.90;;;;;;5007355;28;20061;-82
2022/04/11 06:52:05;;;;;;;9.33;3.40;;;4.10;99.90;;;;;;5010791;28;20026;-83
2022/04/11 06:54:31;;;;;;;7.63;3.57;;;4.10;99.90;;;;;;5010828;28;20364;-82
2022/04/11 06:56:57;;;;;;;6.07;2.80;;;4.10;99.90;;;;;;5013170;28;20105;-83
2022/04/11 06:59:23;;;;;;;8.47;3.73;;;4.40;99.90;;;;;;5014456;28;20159;-83
2022/04/11 07:01:51;;;;;;;4.57;2.93;;;4.50;99.90;;;;;;5011763;28;20034;-79
2022/04/11 07:04:18;;;;;;;4.57;3.10;;;4.70;99.90;;;;;;5029079;28;20442;-79
2022/04/11 07:06:43;;;;;;;7.03;2.57;;;4.60;99.90;;;;;;5013751;28;20045;-80
2022/04/11 07:09:09;;;;;;;3.97;2.47;;;4.60;99.90;;;;;;5011963;28;20470;-81
2022/04/11 07:11:34;;;;;;;4.90;2.70;;;4.80;99.90;;;;;;5005556;28;20025;-81
2022/04/11 07:14:00;;;;;;;8.17;3.27;;;4.90;99.90;;;;;;5011988;28;20032;-81
2022/04/11 07:16:25;;;;;;;6.97;3.33;;;4.90;99.90;;;;;;5012433;28;20018;-80
2022/04/11 07:18:51;;;;;;;7.13;2.90;;;4.90;99.90;;;;;;5013104;28;20030;-81
2022/04/11 07:21:17;;;;;;;11.03;3.10;;;5.00;99.90;;;;;;5013433;28;20501;-81
2022/04/11 07:23:43;;;;;;;4.57;2.43;;;5.00;99.90;;;;;;5012865;28;20360;-80
2022/04/11 07:26:09;;;;;;;5.80;3.37;;;5.20;99.90;;;;;;5013220;28;20079;-80
2022/04/11 07:28:34;;;;;;;7.03;2.53;;;5.20;99.90;;;;;;5011721;28;20030;-80
2022/04/11 07:31:00;;;;;;;8.50;2.60;;;5.30;99.90;;;;;;5012939;28;20410;-81
2022/04/11 07:33:26;;;;;;;8.43;2.53;;;5.40;99.90;;;;;;5011596;28;20050;-80
2022/04/11 07:35:51;;;;;;;5.93;2.50;;;5.70;99.90;;;;;;5013064;28;20022;-80
2022/04/11 07:38:17;;;;;;;6.77;2.60;;;5.80;99.90;;;;;;5011973;28;20034;-80
2022/04/11 07:40:42;;;;;;;6.40;2.60;;;5.90;99.90;;;;;;5013552;28;20026;-80
2022/04/11 07:43:08;;;;;;;8.27;3.23;;;6.10;99.90;;;;;;5013237;28;20092;-80
2022/04/11 07:45:33;;;;;;;3.57;2.30;;;6.20;99.90;;;;;;5013131;28;20410;-80
2022/04/11 07:47:59;;;;;;;7.40;2.63;;;6.30;99.90;;;;;;5013020;28;20033;-80
2022/04/11 07:50:25;;;;;;;6.47;2.40;;;6.50;99.90;;;;;;5012128;28;20022;-80
2022/04/11 07:52:51;;;;;;;3.93;2.47;;;6.70;99.90;;;;;;5013056;28;20025;-80
2022/04/11 07:55:16;;;;;;;4.03;2.37;;;6.90;99.90;;;;;;5012822;28;20208;-80
2022/04/11 07:57:42;;;;;;;10.33;3.00;;;7.10;99.90;;;;;;5013006;28;20049;-80
2022/04/11 08:00:09;;;;;;;5.57;2.60;;;7.20;99.90;;;;;;5013229;28;20566;-80
2022/04/11 08:02:35;;;;;;;7.77;2.53;;;7.20;99.90;;;;;;5012777;28;20414;-80
2022/04/11 08:05:08;;;;;;;6.00;2.80;;;7.00;99.90;;;;;;5012772;28;20025;-80
2022/04/11 08:07:33;;;;;;;6.30;3.00;;;7.10;99.90;;;;;;5012992;28;20038;-80
2022/04/11 08:10:04;;;;;;;5.27;2.73;;;7.10;99.90;;;;;;5012963;28;20022;-80
2022/04/11 08:12:35;;;;;;;7.20;2.83;;;7.10;99.90;;;;;;5012747;28;20473;-80
2022/04/11 08:15:01;;;;;;;7.03;2.80;;;7.20;99.90;;;;;;5026091;28;20362;-81
2022/04/11 08:17:26;;;;;;;5.77;2.47;;;7.20;99.90;;;;;;5013055;28;20014;-80
2022/04/11 08:19:52;;;;;;;7.57;2.60;;;7.30;99.90;;;;;;5021026;28;20033;-83
2022/04/11 08:22:18;;;;;;;6.07;2.60;;;7.40;99.90;;;;;;5028719;28;20053;-84
2022/04/11 08:24:43;;;;;;;6.77;2.60;;;7.50;99.90;;;;;;5017362;28;20041;-72
2022/04/11 08:27:09;;;;;;;6.53;2.67;;;7.50;99.90;;;;;;5008692;28;20046;-81
2022/04/11 08:29:34;;;;;;;8.20;3.10;;;7.70;99.90;;;;;;5008352;28;20387;-81
2022/04/11 08:32:00;;;;;;;5.37;3.00;;;7.90;99.90;;;;;;5009054;28;20164;-80
2022/04/11 08:34:25;;;;;;;4.57;3.10;;;8.00;99.90;;;;;;5013193;28;20120;-80
2022/04/11 08:36:51;;;;;;;4.90;3.33;;;8.20;99.90;;;;;;5011940;28;20406;-81
2022/04/11 08:39:16;;;;;;;4.80;2.43;;;8.30;99.90;;;;;;5008400;28;20068;-81
2022/04/11 08:41:42;;;;;;;6.77;3.40;;;8.30;99.90;;;;;;5010954;28;20029;-81
2022/04/11 08:44:08;;;;;;;6.50;3.13;;;8.20;99.90;;;;;;5008601;28;20033;-81
2022/04/11 08:46:35;;;;;;;6.07;2.90;;;8.30;99.90;;;;;;5009645;28;20037;-81
2022/04/11 08:49:03;;;;;;;7.40;2.60;;;8.20;99.90;;;;;;5012375;28;20026;-81
2022/04/11 08:51:33;;;;;;;6.43;2.93;;;8.40;99.90;;;;;;5010827;28;20427;-80
2022/04/11 08:54:01;;;;;;;7.70;3.20;;;8.70;99.90;;;;;;5008505;28;20068;-81
2022/04/11 08:56:27;;;;;;;4.30;2.83;;;8.70;99.90;;;;;;5010192;28;20391;-80
2022/04/11 08:58:53;;;;;;;7.60;2.80;;;8.80;99.90;;;;;;5013003;28;20532;-76
2022/04/11 09:01:19;;;;;;;8.23;3.20;;;8.80;99.90;;;;;;5016540;28;20455;-76
2022/04/11 09:03:44;;;;;;;5.63;2.70;;;8.90;99.90;;;;;;5008100;28;20037;-76
2022/04/11 09:06:15;;;;;;;9.03;2.80;;;9.00;99.90;;;;;;5016193;28;20030;-76
2022/04/11 09:08:42;;;;;;;4.10;2.93;;;9.10;99.90;;;;;;5016153;28;20018;-76
2022/04/11 09:11:08;;;;;;;8.67;2.57;;;9.40;99.90;;;;;;5017363;28;20105;-77
2022/04/11 09:13:51;;;;;;;5.47;2.50;;;9.80;99.90;;;;;;5035844;28;20021;-76
2022/04/11 09:16:17;;;;;;;9.33;4.90;;;9.90;99.90;;;;;;5035928;28;20029;-77
2022/04/11 09:18:47;;;;;;;8.27;2.80;;;10.30;99.90;;;;;;5034507;28;20026;-76
2022/04/11 09:21:12;;;;;;;6.00;2.50;;;10.30;99.90;;;;;;5035657;28;20022;-77
2022/04/11 09:23:38;;;;;;;6.27;3.00;;;11.10;99.90;;;;;;5034898;28;20025;-77
2022/04/11 09:26:16;;;;;;;5.68;3.25;;;11.50;99.90;;;;;;5036044;28;20032;-77
2022/04/11 09:28:42;;;;;;;5.20;2.70;;;11.80;99.90;;;;;;5034757;28;20421;-77
2022/04/11 09:31:08;;;;;;;4.72;2.55;;;11.70;99.90;;;;;;5034645;28;20025;-77
2022/04/11 09:33:40;;;;;;;4.03;2.22;;;12.00;99.90;;;;;;5035561;28;20474;-76
2022/04/11 09:36:06;;;;;;;4.43;2.55;;;12.40;99.90;;;;;;5034596;28;20025;-76
2022/04/11 09:38:37;;;;;;;4.38;2.55;;;12.70;99.90;;;;;;5035332;28;20052;-76
2022/04/11 09:41:03;;;;;;;6.13;2.50;;;12.70;99.90;;;;;;5034448;28;20025;-76
2022/04/11 09:43:33;;;;;;;6.00;2.40;;;12.80;99.90;;;;;;5017760;28;20033;-77
2022/04/11 09:46:02;;;;;;;3.58;2.40;;;12.70;99.90;;;;;;5013915;28;20026;-77
2022/04/11 09:48:32;;;;;;;7.15;2.70;;;12.80;99.70;;;;;;5015161;28;20029;-76
2022/04/11 09:50:59;;;;;;;4.85;2.38;;;12.60;99.90;;;;;;5015053;28;20517;-77
2022/04/11 09:53:31;;;;;;;4.78;2.60;;;12.90;99.30;;;;;;5015230;28;20049;-77
2022/04/11 09:56:02;;;;;;;4.90;2.70;;;13.30;99.90;;;;;;5030772;28;20026;-76
2022/04/11 09:58:28;;;;;;;3.60;2.33;;;13.20;97.50;;;;;;5015208;28;20471;-76
2022/04/11 10:00:55;;;;;;;6.47;2.70;;;13.50;98.20;;;;;;5030354;28;20022;-76
2022/04/11 10:03:22;;;;;;;3.90;2.30;;;13.60;97.70;;;;;;5015282;28;20018;-76
2022/04/11 10:05:49;;;;;;;3.13;1.90;;;13.70;97.50;;;;;;5014878;28;20032;-76
2022/04/11 10:08:15;;;;;;;5.75;2.40;;;13.70;94.70;;;;;;5015059;28;20030;-76
2022/04/11 10:10:42;;;;;;;4.38;2.65;;;13.80;95.30;;;;;;5015671;28;20022;-76
2022/04/11 10:13:14;;;;;;;3.70;2.40;;;13.80;95.50;;;;;;5015108;28;20028;-77
2022/04/11 10:15:41;;;;;;;5.43;2.30;;;13.80;94.70;;;;;;5015215;28;20380;-76
2022/04/11 10:18:08;;;;;;;5.80;2.38;;;13.70;94.70;;;;;;5013852;28;20026;-77
2022/04/11 10:20:42;;;;;;;3.15;2.10;;;14.00;93.70;;;;;;5015246;28;20430;-77
2022/04/11 10:23:31;;;;;;;6.65;2.50;;;14.50;93.20;;;;;;5015013;28;20049;-76
2022/04/11 10:26:03;;;;;;;3.70;2.13;;;14.70;91.90;;;;;;5014863;28;20038;-77
2022/04/11 10:28:30;;;;;;;3.45;2.20;;;14.30;91.20;;;;;;5014788;28;20068;-76
2022/04/11 10:31:13;;;;;;;4.50;2.05;;;14.90;90.60;;;;;;5014762;28;20033;-77
2022/04/11 10:33:59;;;;;;;3.78;2.08;;;15.00;89.80;;;;;;5014635;28;20057;-76
2022/04/11 10:36:35;;;;;;;3.03;1.80;;;15.30;87.60;;;;;;5014395;28;20068;-76
2022/04/11 10:39:16;;;;;;;6.47;2.28;;;15.30;90.50;;;;;;5014907;28;20352;-77
2022/04/11 10:42:12;;;;;;;3.83;2.10;;;15.30;89.80;;;;;;5014714;28;20026;-77
2022/04/11 10:44:48;;;;;;;3.00;2.00;;;15.20;88.30;;;;;;4996187;28;20069;-77
2022/04/11 10:47:17;;;;;;;4.00;2.20;;;15.00;87.30;;;;;;5014197;28;20383;-77
2022/04/11 10:49:48;;;;;;;5.60;2.22;;;15.00;86.00;;;;;;5029539;28;20018;-77
2022/04/11 10:52:30;;;;;;;3.72;2.13;;;15.00;90.80;;;;;;5014670;28;20132;-76
2022/04/11 10:55:03;;;;;;;3.60;1.98;;;15.60;87.10;;;;;;5030006;28;20025;-77
2022/04/11 10:57:50;;;;;;;5.25;2.25;;;15.80;83.10;;;;;;5014094;28;20061;-76
2022/04/11 11:00:17;;;;;;;4.30;2.90;;;15.80;84.10;;;;;;5012610;28;20022;-76
2022/04/11 11:02:52;;;;;;;3.33;2.20;;;15.80;83.50;;;;;;5014192;28;20037;-76
2022/04/11 11:05:29;;;;;;;6.28;2.35;;;15.70;83.70;;;;;;5014234;28;20026;-76
2022/04/11 11:08:10;;;;;;;3.67;2.38;;;15.80;83.30;;;;;;5013914;28;20029;-76
2022/04/11 11:10:55;;;;;;;3.47;2.05;;;15.90;80.20;;;;;;5014131;28;20503;-76
2022/04/11 11:13:38;;;;;;;5.97;2.85;;;16.10;78.90;;;;;;5014455;28;20029;-76
2022/04/11 11:16:07;;;;;;;4.45;1.98;;;16.00;80.30;;;;;;5014073;28;20029;-76
2022/04/11 11:18:50;;;;;;;4.22;2.20;;;16.10;83.50;;;;;;5013805;28;20030;-76
2022/04/11 11:21:44;;;;;;;5.13;2.17;;;16.40;80.60;;;;;;5013543;28;20029;-76
2022/04/11 11:24:11;;;;;;;2.92;1.92;;;16.30;78.70;;;;;;5025746;28;20379;-76
2022/04/11 11:26:48;;;;;;;4.60;2.05;;;16.00;78.10;;;;;;4994180;28;20026;-77
2022/04/11 11:29:29;;;;;;;4.95;2.42;;;16.10;79.10;;;;;;5009039;28;20026;-76
2022/04/11 11:32:05;;;;;;;3.35;2.20;;;15.90;75.60;;;;;;5012407;28;20502;-76
2022/04/11 11:34:36;;;;;;;4.72;2.20;;;16.20;77.30;;;;;;5011715;28;20042;-76
2022/04/11 11:37:07;;;;;;;4.68;2.38;;;16.00;78.20;;;;;;4992631;28;20049;-76
2022/04/11 11:39:37;;;;;;;4.03;2.40;;;15.60;79.50;;;;;;4994144;28;20050;-76
2022/04/11 11:42:05;;;;;;;3.15;2.22;;;16.10;82.20;;;;;;5008778;28;20484;-76
2022/04/11 11:44:31;;;;;;;2.90;2.15;;;16.20;81.90;;;;;;4994171;28;20027;-76
2022/04/11 11:46:58;;;;;;;3.35;2.30;;;16.30;77.80;;;;;;5017505;28;20032;-76
2022/04/11 11:49:26;;;;;;;5.55;2.83;;;16.70;77.00;;;;;;5020543;28;20041;-76
2022/04/11 11:51:53;;;;;;;3.08;2.30;;;17.10;80.60;;;;;;5008718;28;20014;-76
2022/04/11 11:54:39;;;;;;;3.42;2.17;;;17.20;74.40;;;;;;5000101;28;20100;-77
2022/04/11 11:57:15;;;;;;;4.43;2.40;;;16.90;76.00;;;;;;5017838;28;20052;-76
2022/04/11 12:00:05;;;;;;;4.43;2.70;;;16.70;76.20;;;;;;5026571;28;20029;-76
2022/04/11 12:05:21;;;;;;;4.20;1.90;;;16.90;78.10;;;;;;5011574;28;20033;-76
2022/04/11 12:07:49;;;;;;;4.45;3.50;;;16.60;77.40;;;;;;5010533;28;20037;-76
2022/04/11 12:10:16;;;;;;;4.80;2.60;;;16.80;77.20;;;;;;5015028;28;20045;-76
2022/04/11 12:12:44;;;;;;;3.63;2.45;;;16.80;78.10;;;;;;5030030;28;20045;-76
2022/04/11 12:15:10;;;;;;;5.05;2.13;;;16.80;77.50;;;;;;5015466;28;20021;-76
2022/04/11 12:17:42;;;;;;;3.97;2.22;;;16.40;77.40;;;;;;5015440;28;20048;-76
2022/04/11 12:20:19;;;;;;;4.20;1.92;;;16.80;75.40;;;;;;5018538;28;20041;-76
2022/04/11 12:23:10;;;;;;;4.07;2.38;;;16.90;75.40;;;;;;5016213;28;20029;-76
2022/04/11 12:25:50;;;;;;;4.60;2.47;;;17.40;73.20;;;;;;5018327;28;20026;-76
2022/04/11 12:28:24;;;;;;;3.17;2.22;;;17.50;71.50;;;;;;5013710;28;20590;-76
2022/04/11 12:31:02;;;;;;;3.85;2.15;;;17.30;72.30;;;;;;5009410;28;20037;-76
2022/04/11 12:33:43;;;;;;;5.93;2.05;;;17.20;72.20;;;;;;4994830;28;20057;-76
2022/04/11 12:36:08;;;;;;;5.63;2.10;;;17.00;71.60;;;;;;5004041;28;20103;-76
2022/04/11 12:38:45;;;;;;;3.50;2.10;;;16.90;73.90;;;;;;5014983;28;20050;-76
2022/04/11 12:41:32;;;;;;;4.25;2.17;;;16.90;72.70;;;;;;5013235;28;20483;-76
2022/04/11 12:44:14;;;;;;;3.97;2.15;;;16.80;71.20;;;;;;5013932;28;20371;-76
2022/04/11 12:46:45;;;;;;;5.47;2.53;;;17.00;72.10;;;;;;5014061;28;20034;-76
2022/04/11 12:49:13;;;;;;;3.03;2.08;;;17.20;71.00;;;;;;5014581;28;20405;-76
2022/04/11 12:51:39;;;;;;;4.10;2.30;;;17.30;73.30;;;;;;5014417;28;20385;-76
2022/04/11 12:54:12;;;;;;;4.47;2.40;;;17.30;72.50;;;;;;5014744;28;20050;-76
2022/04/11 12:56:45;;;;;;;3.20;1.73;;;17.40;74.40;;;;;;5014887;28;20022;-76